sensor_id;sensor_type;location;lat;lon;timestamp;pressure;altitude;pressure_sealevel;temperature;humidity
57594;BME280;43423;46.510;6.686;2023-02-13T00:01:04;98195.06;;;3.61;66.48
57594;BME280;43423;46.510;6.686;2023-02-13T00:03:29;98192.75;;;3.56;67.37
57594;BME280;43423;46.510;6.686;2023-02-13T00:05:55;98196.63;;;3.55;66.96
57594;BME280;43423;46.510;6.686;2023-02-13T00:08:21;98191.59;;;3.43;67.58
57594;BME280;43423;46.510;6.686;2023-02-13T00:10:47;98195.84;;;3.44;67.71
57594;BME280;43423;46.510;6.686;2023-02-13T00:13:12;98191.97;;;3.45;66.79
57594;BME280;43423;46.510;6.686;2023-02-13T00:15:38;98195.84;;;3.44;67.27
57594;BME280;43423;46.510;6.686;2023-02-13T00:18:04;98197.41;;;3.34;67.21
57594;BME280;43423;46.510;6.686;2023-02-13T00:20:29;98185.75;;;3.30;67.40
57594;BME280;43423;46.510;6.686;2023-02-13T00:22:57;98189.63;;;3.29;67.79
57594;BME280;43423;46.510;6.686;2023-02-13T00:25:23;98191.97;;;3.31;67.28
57594;BME280;43423;46.510;6.686;2023-02-13T00:27:50;98197.41;;;3.27;67.23
57594;BME280;43423;46.510;6.686;2023-02-13T00:30:16;98198.97;;;3.25;67.40
57594;BME280;43423;46.510;6.686;2023-02-13T00:32:41;98192.72;;;3.21;67.01
57594;BME280;43423;46.510;6.686;2023-02-13T00:35:07;98195.84;;;3.23;66.64
57594;BME280;43423;46.510;6.686;2023-02-13T00:37:33;98185.34;;;3.21;66.97
57594;BME280;43423;46.510;6.686;2023-02-13T00:39:58;98197.41;;;3.20;66.94
57594;BME280;43423;46.510;6.686;2023-02-13T00:42:24;98195.06;;;3.19;67.60
57594;BME280;43423;46.510;6.686;2023-02-13T00:44:51;98191.97;;;3.17;67.23
57594;BME280;43423;46.510;6.686;2023-02-13T00:47:17;98195.44;;;3.14;67.97
57594;BME280;43423;46.510;6.686;2023-02-13T00:49:43;98196.59;;;3.13;68.06
57594;BME280;43423;46.510;6.686;2023-02-13T00:52:09;98206.69;;;3.16;67.99
57594;BME280;43423;46.510;6.686;2023-02-13T00:54:34;98197.78;;;3.19;68.26
57594;BME280;43423;46.510;6.686;2023-02-13T00:57:00;98199.72;;;3.15;68.00
57594;BME280;43423;46.510;6.686;2023-02-13T00:59:25;98204.41;;;3.18;67.97
57594;BME280;43423;46.510;6.686;2023-02-13T01:01:51;98207.84;;;3.07;68.22
57594;BME280;43423;46.510;6.686;2023-02-13T01:04:16;98207.06;;;3.07;68.57
57594;BME280;43423;46.510;6.686;2023-02-13T01:06:42;98207.47;;;3.05;67.65
57594;BME280;43423;46.510;6.686;2023-02-13T01:09:07;98202.41;;;3.04;68.17
57594;BME280;43423;46.510;6.686;2023-02-13T01:11:33;98207.06;;;2.93;69.19
57594;BME280;43423;46.510;6.686;2023-02-13T01:13:59;98213.28;;;2.97;68.77
57594;BME280;43423;46.510;6.686;2023-02-13T01:16:24;98211.34;;;3.04;68.65
57594;BME280;43423;46.510;6.686;2023-02-13T01:18:50;98203.56;;;2.99;68.59
57594;BME280;43423;46.510;6.686;2023-02-13T01:21:17;98206.69;;;2.98;68.89
57594;BME280;43423;46.510;6.686;2023-02-13T01:23:44;98224.53;;;2.99;69.39
57594;BME280;43423;46.510;6.686;2023-02-13T01:26:15;98217.53;;;2.98;68.91
57594;BME280;43423;46.510;6.686;2023-02-13T01:28:41;98214.41;;;2.89;69.89
57594;BME280;43423;46.510;6.686;2023-02-13T01:31:07;98218.69;;;2.86;69.64
57594;BME280;43423;46.510;6.686;2023-02-13T01:33:32;98215.97;;;2.86;70.38
57594;BME280;43423;46.510;6.686;2023-02-13T01:36:05;98218.28;;;2.77;69.51
57594;BME280;43423;46.510;6.686;2023-02-13T01:38:30;98212.06;;;2.73;70.98
57594;BME280;43423;46.510;6.686;2023-02-13T01:40:56;98213.59;;;2.70;69.78
57594;BME280;43423;46.510;6.686;2023-02-13T01:43:22;98208.16;;;2.67;70.43
57594;BME280;43423;46.510;6.686;2023-02-13T01:45:51;98216.31;;;2.70;70.48
57594;BME280;43423;46.510;6.686;2023-02-13T01:48:22;98210.09;;;2.63;70.02
57594;BME280;43423;46.510;6.686;2023-02-13T01:50:54;98202.69;;;2.60;70.99
57594;BME280;43423;46.510;6.686;2023-02-13T01:53:31;98205.41;;;2.60;71.25
57594;BME280;43423;46.510;6.686;2023-02-13T01:56:11;98211.25;;;2.65;71.31
57594;BME280;43423;46.510;6.686;2023-02-13T01:58:40;98210.47;;;2.68;71.37
57594;BME280;43423;46.510;6.686;2023-02-13T02:01:07;98198.84;;;2.75;71.07
57594;BME280;43423;46.510;6.686;2023-02-13T02:03:57;98205.47;;;2.81;69.64
57594;BME280;43423;46.510;6.686;2023-02-13T02:06:29;98214.00;;;2.83;70.39
57594;BME280;43423;46.510;6.686;2023-02-13T02:09:01;98204.31;;;2.82;69.48
57594;BME280;43423;46.510;6.686;2023-02-13T02:11:51;98210.94;;;2.85;69.66
57594;BME280;43423;46.510;6.686;2023-02-13T02:14:18;98210.13;;;2.84;69.77
57594;BME280;43423;46.510;6.686;2023-02-13T02:16:44;98206.28;;;2.85;69.80
57594;BME280;43423;46.510;6.686;2023-02-13T02:19:18;98207.06;;;2.86;69.33
57594;BME280;43423;46.510;6.686;2023-02-13T02:22:14;98207.41;;;2.84;70.34
57594;BME280;43423;46.510;6.686;2023-02-13T02:24:56;98208.56;;;2.83;70.63
57594;BME280;43423;46.510;6.686;2023-02-13T02:30:31;98204.34;;;2.86;70.36
57594;BME280;43423;46.510;6.686;2023-02-13T02:36:12;98205.06;;;2.75;69.80
57594;BME280;43423;46.510;6.686;2023-02-13T02:41:45;98206.53;;;2.51;70.47
57594;BME280;43423;46.510;6.686;2023-02-13T02:44:45;98212.75;;;2.52;70.57
57594;BME280;43423;46.510;6.686;2023-02-13T02:47:26;98201.09;;;2.51;71.87
57594;BME280;43423;46.510;6.686;2023-02-13T02:50:36;98200.31;;;2.47;70.79
57594;BME280;43423;46.510;6.686;2023-02-13T02:55:34;98215.47;;;2.52;69.90
57594;BME280;43423;46.510;6.686;2023-02-13T03:00:51;98217.41;;;2.59;71.42
57594;BME280;43423;46.510;6.686;2023-02-13T03:03:36;98217.44;;;2.66;72.61
57594;BME280;43423;46.510;6.686;2023-02-13T03:06:29;98222.91;;;2.69;72.76
57594;BME280;43423;46.510;6.686;2023-02-13T03:09:00;98222.88;;;2.66;71.51
57594;BME280;43423;46.510;6.686;2023-02-13T03:11:48;98227.13;;;2.60;70.44
57594;BME280;43423;46.510;6.686;2023-02-13T03:14:33;98218.59;;;2.58;71.44
57594;BME280;43423;46.510;6.686;2023-02-13T03:16:59;98222.47;;;2.60;71.16
57594;BME280;43423;46.510;6.686;2023-02-13T03:23:19;98226.66;;;2.43;71.52
57594;BME280;43423;46.510;6.686;2023-02-13T03:28:40;98221.63;;;2.38;72.09
57594;BME280;43423;46.510;6.686;2023-02-13T03:31:39;98228.22;;;2.37;71.83
57594;BME280;43423;46.510;6.686;2023-02-13T03:34:11;98228.19;;;2.34;72.08
57594;BME280;43423;46.510;6.686;2023-02-13T03:37:00;98230.47;;;2.28;71.15
57594;BME280;43423;46.510;6.686;2023-02-13T03:39:59;98225.00;;;2.21;72.63
57594;BME280;43423;46.510;6.686;2023-02-13T03:42:40;98230.47;;;2.28;73.02
57594;BME280;43423;46.510;6.686;2023-02-13T03:45:27;98235.16;;;2.31;72.36
57594;BME280;43423;46.510;6.686;2023-02-13T03:48:15;98229.72;;;2.31;73.03
57594;BME280;43423;46.510;6.686;2023-02-13T03:51:01;98240.19;;;2.33;72.40
57594;BME280;43423;46.510;6.686;2023-02-13T03:53:30;98239.78;;;2.27;73.14
57594;BME280;43423;46.510;6.686;2023-02-13T03:55:58;98239.78;;;2.27;72.32
57594;BME280;43423;46.510;6.686;2023-02-13T03:58:49;98232.00;;;2.22;72.09
57594;BME280;43423;46.510;6.686;2023-02-13T04:01:36;98240.19;;;2.29;72.51
57594;BME280;43423;46.510;6.686;2023-02-13T04:09:26;98243.25;;;2.24;73.23
57594;BME280;43423;46.510;6.686;2023-02-13T04:14:34;98241.28;;;2.14;72.89
57594;BME280;43423;46.510;6.686;2023-02-13T04:17:15;98236.63;;;2.14;72.30
57594;BME280;43423;46.510;6.686;2023-02-13T04:19:42;98243.22;;;2.17;72.50
57594;BME280;43423;46.510;6.686;2023-02-13T04:22:10;98245.94;;;2.17;72.58
57594;BME280;43423;46.510;6.686;2023-02-13T04:24:36;98242.81;;;2.15;72.08
57594;BME280;43423;46.510;6.686;2023-02-13T04:27:02;98252.13;;;2.14;73.35
57594;BME280;43423;46.510;6.686;2023-02-13T04:29:28;98244.78;;;2.18;73.12
57594;BME280;43423;46.510;6.686;2023-02-13T04:31:53;98240.50;;;2.17;73.11
57594;BME280;43423;46.510;6.686;2023-02-13T04:34:19;98246.31;;;2.15;74.06
57594;BME280;43423;46.510;6.686;2023-02-13T04:36:44;98245.16;;;2.20;72.57
57594;BME280;43423;46.510;6.686;2023-02-13T04:39:11;98244.81;;;2.21;73.42
57594;BME280;43423;46.510;6.686;2023-02-13T04:41:36;98238.59;;;2.24;72.33
57594;BME280;43423;46.510;6.686;2023-02-13T04:44:02;98245.97;;;2.24;73.29
57594;BME280;43423;46.510;6.686;2023-02-13T04:46:27;98236.66;;;2.21;72.93
57594;BME280;43423;46.510;6.686;2023-02-13T04:48:53;98245.59;;;2.22;72.69
57594;BME280;43423;46.510;6.686;2023-02-13T04:51:19;98251.41;;;2.24;72.43
57594;BME280;43423;46.510;6.686;2023-02-13T04:53:44;98251.78;;;2.22;72.01
57594;BME280;43423;46.510;6.686;2023-02-13T04:56:10;98244.00;;;2.21;71.84
57594;BME280;43423;46.510;6.686;2023-02-13T04:58:35;98251.38;;;2.20;72.34
57594;BME280;43423;46.510;6.686;2023-02-13T05:01:01;98257.56;;;2.21;71.47
57594;BME280;43423;46.510;6.686;2023-02-13T05:03:27;98260.72;;;2.23;72.70
57594;BME280;43423;46.510;6.686;2023-02-13T05:05:52;98259.91;;;2.19;71.63
57594;BME280;43423;46.510;6.686;2023-02-13T05:08:18;98258.38;;;2.25;72.94
57594;BME280;43423;46.510;6.686;2023-02-13T05:10:43;98268.47;;;2.24;72.66
57594;BME280;43423;46.510;6.686;2023-02-13T05:13:09;98252.13;;;2.17;72.77
57594;BME280;43423;46.510;6.686;2023-02-13T05:15:34;98263.81;;;2.21;73.60
57594;BME280;43423;46.510;6.686;2023-02-13T05:18:00;98258.00;;;2.27;71.72
57594;BME280;43423;46.510;6.686;2023-02-13T05:20:26;98256.84;;;2.24;71.70
57594;BME280;43423;46.510;6.686;2023-02-13T05:22:52;98264.59;;;2.22;74.06
57594;BME280;43423;46.510;6.686;2023-02-13T05:25:39;98261.44;;;2.20;72.98
57594;BME280;43423;46.510;6.686;2023-02-13T05:28:06;98261.88;;;2.22;71.79
57594;BME280;43423;46.510;6.686;2023-02-13T05:30:55;98270.75;;;2.15;72.28
57594;BME280;43423;46.510;6.686;2023-02-13T05:33:21;98249.75;;;2.09;74.49
57594;BME280;43423;46.510;6.686;2023-02-13T05:35:46;98260.22;;;2.07;74.53
57594;BME280;43423;46.510;6.686;2023-02-13T05:38:12;98262.19;;;2.13;73.02
57594;BME280;43423;46.510;6.686;2023-02-13T05:40:37;98256.78;;;2.13;73.74
57594;BME280;43423;46.510;6.686;2023-02-13T05:43:03;98252.88;;;2.11;73.36
57594;BME280;43423;46.510;6.686;2023-02-13T05:45:28;98251.69;;;2.08;73.50
57594;BME280;43423;46.510;6.686;2023-02-13T05:47:54;98242.00;;;2.11;75.66
57594;BME280;43423;46.510;6.686;2023-02-13T05:50:19;98257.50;;;2.07;74.64
57594;BME280;43423;46.510;6.686;2023-02-13T05:52:45;98258.25;;;2.04;74.61
57594;BME280;43423;46.510;6.686;2023-02-13T05:55:10;98256.28;;;2.01;74.07
57594;BME280;43423;46.510;6.686;2023-02-13T05:57:35;98252.03;;;2.00;74.19
57594;BME280;43423;46.510;6.686;2023-02-13T06:00:03;98267.84;;;1.90;74.45
57594;BME280;43423;46.510;6.686;2023-02-13T06:02:29;98267.44;;;1.88;74.65
57594;BME280;43423;46.510;6.686;2023-02-13T06:04:54;98261.22;;;1.88;74.53
57594;BME280;43423;46.510;6.686;2023-02-13T06:07:20;98263.56;;;1.89;76.18
57594;BME280;43423;46.510;6.686;2023-02-13T06:09:45;98262.06;;;1.95;74.88
57594;BME280;43423;46.510;6.686;2023-02-13T06:12:11;98261.69;;;1.97;74.65
57594;BME280;43423;46.510;6.686;2023-02-13T06:14:36;98272.50;;;1.90;73.34
57594;BME280;43423;46.510;6.686;2023-02-13T06:17:02;98270.56;;;1.90;75.58
57594;BME280;43423;46.510;6.686;2023-02-13T06:19:27;98260.88;;;1.93;75.97
57594;BME280;43423;46.510;6.686;2023-02-13T06:21:53;98277.56;;;1.91;74.68
57594;BME280;43423;46.510;6.686;2023-02-13T06:24:18;98267.03;;;1.86;74.88
57594;BME280;43423;46.510;6.686;2023-02-13T06:26:44;98270.91;;;1.85;75.45
57594;BME280;43423;46.510;6.686;2023-02-13T06:29:09;98277.84;;;1.79;75.43
57594;BME280;43423;46.510;6.686;2023-02-13T06:31:35;98282.53;;;1.82;74.39
57594;BME280;43423;46.510;6.686;2023-02-13T06:34:01;98279.00;;;1.78;75.81
57594;BME280;43423;46.510;6.686;2023-02-13T06:36:26;98283.63;;;1.74;74.56
57594;BME280;43423;46.510;6.686;2023-02-13T06:38:52;98285.97;;;1.76;74.42
57594;BME280;43423;46.510;6.686;2023-02-13T06:41:17;98286.72;;;1.76;75.10
57594;BME280;43423;46.510;6.686;2023-02-13T06:43:43;98279.75;;;1.75;74.72
57594;BME280;43423;46.510;6.686;2023-02-13T06:46:09;98285.53;;;1.74;74.70
57594;BME280;43423;46.510;6.686;2023-02-13T06:48:34;98292.94;;;1.77;74.27
57594;BME280;43423;46.510;6.686;2023-02-13T06:51:00;98293.66;;;1.74;74.21
57594;BME280;43423;46.510;6.686;2023-02-13T06:53:26;98299.53;;;1.79;75.48
57594;BME280;43423;46.510;6.686;2023-02-13T06:55:53;98299.97;;;1.85;73.97
57594;BME280;43423;46.510;6.686;2023-02-13T06:58:20;98303.84;;;1.84;72.99
57594;BME280;43423;46.510;6.686;2023-02-13T07:00:46;98306.19;;;1.85;73.27
57594;BME280;43423;46.510;6.686;2023-02-13T07:03:12;98300.00;;;1.88;73.06
57594;BME280;43423;46.510;6.686;2023-02-13T07:05:41;98302.34;;;1.90;72.91
57594;BME280;43423;46.510;6.686;2023-02-13T07:08:08;98310.88;;;1.92;72.70
57594;BME280;43423;46.510;6.686;2023-02-13T07:10:36;98305.06;;;1.93;74.54
57594;BME280;43423;46.510;6.686;2023-02-13T07:13:03;98305.50;;;1.99;74.97
57594;BME280;43423;46.510;6.686;2023-02-13T07:15:29;98317.25;;;2.14;75.13
57594;BME280;43423;46.510;6.686;2023-02-13T07:17:55;98300.97;;;2.14;74.99
57594;BME280;43423;46.510;6.686;2023-02-13T07:20:22;98306.47;;;2.24;75.12
57594;BME280;43423;46.510;6.686;2023-02-13T07:22:47;98311.59;;;2.40;75.93
57594;BME280;43423;46.510;6.686;2023-02-13T07:25:13;98307.34;;;2.43;74.96
57594;BME280;43423;46.510;6.686;2023-02-13T07:27:38;98317.88;;;2.51;76.09
57594;BME280;43423;46.510;6.686;2023-02-13T07:30:05;98311.31;;;2.60;73.99
57594;BME280;43423;46.510;6.686;2023-02-13T07:32:30;98317.97;;;2.73;75.70
57594;BME280;43423;46.510;6.686;2023-02-13T07:34:56;98313.75;;;2.79;75.86
57594;BME280;43423;46.510;6.686;2023-02-13T07:37:21;98318.47;;;2.96;75.58
57594;BME280;43423;46.510;6.686;2023-02-13T07:39:48;98326.28;;;3.08;75.11
57594;BME280;43423;46.510;6.686;2023-02-13T07:42:13;98321.66;;;3.23;75.43
57594;BME280;43423;46.510;6.686;2023-02-13T07:44:39;98322.84;;;3.29;76.74
57594;BME280;43423;46.510;6.686;2023-02-13T07:47:04;98331.84;;;3.51;77.75
57594;BME280;43423;46.510;6.686;2023-02-13T07:49:30;98331.09;;;3.83;77.16
57594;BME280;43423;46.510;6.686;2023-02-13T07:51:56;98334.63;;;3.98;74.59
57594;BME280;43423;46.510;6.686;2023-02-13T07:54:23;98339.28;;;4.11;73.79
57594;BME280;43423;46.510;6.686;2023-02-13T07:56:48;98333.44;;;4.27;73.75
57594;BME280;43423;46.510;6.686;2023-02-13T07:59:14;98343.53;;;4.41;73.73
57594;BME280;43423;46.510;6.686;2023-02-13T08:01:39;98345.47;;;4.51;72.65
57594;BME280;43423;46.510;6.686;2023-02-13T08:04:05;98341.16;;;4.64;71.45
57594;BME280;43423;46.510;6.686;2023-02-13T08:06:30;98341.09;;;4.86;71.48
57594;BME280;43423;46.510;6.686;2023-02-13T08:08:56;98347.25;;;5.04;70.65
57594;BME280;43423;46.510;6.686;2023-02-13T08:11:40;98337.09;;;5.15;70.33
57594;BME280;43423;46.510;6.686;2023-02-13T08:14:24;98332.00;;;5.24;70.29
57594;BME280;43423;46.510;6.686;2023-02-13T08:16:51;98337.34;;;5.46;69.81
57594;BME280;43423;46.510;6.686;2023-02-13T08:19:17;98334.94;;;5.55;69.65
57594;BME280;43423;46.510;6.686;2023-02-13T08:21:43;98331.41;;;5.58;69.62
57594;BME280;43423;46.510;6.686;2023-02-13T08:24:09;98337.72;;;5.44;70.61
57594;BME280;43423;46.510;6.686;2023-02-13T08:26:34;98331.34;;;5.69;69.36
57594;BME280;43423;46.510;6.686;2023-02-13T08:29:00;98339.88;;;5.74;69.32
57594;BME280;43423;46.510;6.686;2023-02-13T08:31:25;98345.34;;;5.78;69.18
57594;BME280;43423;46.510;6.686;2023-02-13T08:33:51;98341.16;;;5.59;70.11
57594;BME280;43423;46.510;6.686;2023-02-13T08:36:17;98336.53;;;5.49;69.19
57594;BME280;43423;46.510;6.686;2023-02-13T08:38:45;98340.38;;;5.58;69.74
57594;BME280;43423;46.510;6.686;2023-02-13T08:41:11;98333.56;;;5.88;68.22
57594;BME280;43423;46.510;6.686;2023-02-13T08:43:37;98345.22;;;5.96;67.42
57594;BME280;43423;46.510;6.686;2023-02-13T08:46:02;98338.84;;;6.17;66.97
57594;BME280;43423;46.510;6.686;2023-02-13T08:48:29;98339.34;;;6.01;67.33
57594;BME280;43423;46.510;6.686;2023-02-13T08:50:54;98343.06;;;6.21;68.03
57594;BME280;43423;46.510;6.686;2023-02-13T08:53:20;98340.16;;;6.42;67.46
57594;BME280;43423;46.510;6.686;2023-02-13T08:55:53;98334.72;;;6.39;66.91
57594;BME280;43423;46.510;6.686;2023-02-13T08:58:19;98325.50;;;6.26;68.25
57594;BME280;43423;46.510;6.686;2023-02-13T09:00:44;98336.59;;;6.46;68.08
57594;BME280;43423;46.510;6.686;2023-02-13T09:03:10;98335.19;;;6.71;67.72
57594;BME280;43423;46.510;6.686;2023-02-13T09:05:36;98344.66;;;6.60;67.15
57594;BME280;43423;46.510;6.686;2023-02-13T09:08:02;98345.25;;;6.78;67.04
57594;BME280;43423;46.510;6.686;2023-02-13T09:10:29;98341.88;;;6.63;66.60
57594;BME280;43423;46.510;6.686;2023-02-13T09:12:55;98341.81;;;6.74;67.20
57594;BME280;43423;46.510;6.686;2023-02-13T09:15:20;98336.75;;;6.69;66.89
57594;BME280;43423;46.510;6.686;2023-02-13T09:17:46;98344.56;;;6.70;68.51
57594;BME280;43423;46.510;6.686;2023-02-13T09:20:12;98336.66;;;6.38;68.72
57594;BME280;43423;46.510;6.686;2023-02-13T09:22:40;98342.66;;;6.26;69.61
57594;BME280;43423;46.510;6.686;2023-02-13T09:25:07;98344.63;;;6.22;70.60
57594;BME280;43423;46.510;6.686;2023-02-13T09:27:33;98349.53;;;6.41;70.90
57594;BME280;43423;46.510;6.686;2023-02-13T09:29:59;98342.28;;;6.24;70.78
57594;BME280;43423;46.510;6.686;2023-02-13T09:32:25;98347.66;;;6.35;71.63
57594;BME280;43423;46.510;6.686;2023-02-13T09:34:50;98344.13;;;6.76;70.84
57594;BME280;43423;46.510;6.686;2023-02-13T09:37:16;98351.63;;;6.68;69.15
57594;BME280;43423;46.510;6.686;2023-02-13T09:39:41;98354.72;;;6.70;69.24
57594;BME280;43423;46.510;6.686;2023-02-13T09:42:17;98345.78;;;7.04;69.23
57594;BME280;43423;46.510;6.686;2023-02-13T09:44:44;98343.25;;;7.20;68.68
57594;BME280;43423;46.510;6.686;2023-02-13T09:49:46;98340.69;;;7.63;67.85
57594;BME280;43423;46.510;6.686;2023-02-13T09:52:13;98337.94;;;7.36;68.11
57594;BME280;43423;46.510;6.686;2023-02-13T09:54:39;98341.47;;;7.37;68.65
57594;BME280;43423;46.510;6.686;2023-02-13T09:57:32;98340.25;;;7.38;67.91
57594;BME280;43423;46.510;6.686;2023-02-13T10:08:23;98337.47;;;7.41;68.09
57594;BME280;43423;46.510;6.686;2023-02-13T10:10:52;98338.97;;;7.15;68.21
57594;BME280;43423;46.510;6.686;2023-02-13T10:13:49;98342.56;;;7.43;67.76
57594;BME280;43423;46.510;6.686;2023-02-13T10:16:23;98342.22;;;7.37;67.48
57594;BME280;43423;46.510;6.686;2023-02-13T10:19:11;98340.00;;;7.28;68.49
57594;BME280;43423;46.510;6.686;2023-02-13T10:21:55;98343.44;;;7.63;67.15
57594;BME280;43423;46.510;6.686;2023-02-13T10:27:03;98345.53;;;7.82;66.25
57594;BME280;43423;46.510;6.686;2023-02-13T10:29:36;98342.16;;;7.98;66.09
57594;BME280;43423;46.510;6.686;2023-02-13T10:32:34;98346.78;;;8.01;65.44
57594;BME280;43423;46.510;6.686;2023-02-13T10:35:03;98342.50;;;8.00;65.39
57594;BME280;43423;46.510;6.686;2023-02-13T10:37:35;98339.00;;;8.00;65.31
57594;BME280;43423;46.510;6.686;2023-02-13T10:40:00;98340.34;;;8.11;65.07
57594;BME280;43423;46.510;6.686;2023-02-13T10:42:35;98341.75;;;8.23;64.17
57594;BME280;43423;46.510;6.686;2023-02-13T10:48:02;98334.75;;;8.19;64.06
57594;BME280;43423;46.510;6.686;2023-02-13T10:51:00;98325.19;;;8.30;63.79
57594;BME280;43423;46.510;6.686;2023-02-13T10:56:25;98322.84;;;8.29;64.38
57594;BME280;43423;46.510;6.686;2023-02-13T10:59:19;98322.50;;;8.50;63.92
57594;BME280;43423;46.510;6.686;2023-02-13T11:02:01;98319.06;;;8.46;63.83
57594;BME280;43423;46.510;6.686;2023-02-13T11:04:34;98313.50;;;8.50;63.50
57594;BME280;43423;46.510;6.686;2023-02-13T11:07:01;98323.66;;;8.73;62.30
57594;BME280;43423;46.510;6.686;2023-02-13T11:09:29;98318.38;;;8.62;62.53
57594;BME280;43423;46.510;6.686;2023-02-13T11:11:57;98321.47;;;8.64;62.74
57594;BME280;43423;46.510;6.686;2023-02-13T11:14:24;98323.09;;;8.61;61.50
57594;BME280;43423;46.510;6.686;2023-02-13T11:17:02;98316.97;;;8.30;63.65
57594;BME280;43423;46.510;6.686;2023-02-13T11:19:33;98324.25;;;8.13;63.99
57594;BME280;43423;46.510;6.686;2023-02-13T11:22:07;98315.25;;;8.40;63.12
57594;BME280;43423;46.510;6.686;2023-02-13T11:24:34;98309.28;;;8.45;64.35
57594;BME280;43423;46.510;6.686;2023-02-13T11:27:06;98302.63;;;8.66;63.14
57594;BME280;43423;46.510;6.686;2023-02-13T11:29:35;98311.94;;;8.72;62.41
57594;BME280;43423;46.510;6.686;2023-02-13T11:32:20;98303.75;;;8.68;62.27
57594;BME280;43423;46.510;6.686;2023-02-13T11:34:46;98305.03;;;8.84;61.83
57594;BME280;43423;46.510;6.686;2023-02-13T11:39:39;98300.81;;;8.99;62.36
57594;BME280;43423;46.510;6.686;2023-02-13T11:42:14;98291.59;;;9.09;61.71
57594;BME280;43423;46.510;6.686;2023-02-13T11:44:41;98304.59;;;9.25;61.27
57594;BME280;43423;46.510;6.686;2023-02-13T11:47:07;98293.78;;;9.18;61.36
57594;BME280;43423;46.510;6.686;2023-02-13T11:49:37;98295.38;;;9.15;61.74
57594;BME280;43423;46.510;6.686;2023-02-13T11:52:35;98291.59;;;9.09;61.40
57594;BME280;43423;46.510;6.686;2023-02-13T11:55:04;98290.66;;;9.16;60.98
57594;BME280;43423;46.510;6.686;2023-02-13T11:57:33;98285.50;;;9.54;61.22
57594;BME280;43423;46.510;6.686;2023-02-13T12:00:00;98278.69;;;9.26;61.29
57594;BME280;43423;46.510;6.686;2023-02-13T12:02:28;98279.19;;;9.21;61.12
57594;BME280;43423;46.510;6.686;2023-02-13T12:07:40;98273.25;;;9.42;60.17
57594;BME280;43423;46.510;6.686;2023-02-13T12:15:37;98267.84;;;9.71;59.00
57594;BME280;43423;46.510;6.686;2023-02-13T12:18:18;98261.34;;;9.65;58.80
57594;BME280;43423;46.510;6.686;2023-02-13T12:26:28;98259.69;;;10.00;57.86
57594;BME280;43423;46.510;6.686;2023-02-13T12:29:27;98253.34;;;9.71;57.92
57594;BME280;43423;46.510;6.686;2023-02-13T12:32:11;98248.97;;;9.90;57.21
57594;BME280;43423;46.510;6.686;2023-02-13T12:35:01;98247.75;;;10.07;55.74
57594;BME280;43423;46.510;6.686;2023-02-13T12:37:58;98242.75;;;10.18;56.40
57594;BME280;43423;46.510;6.686;2023-02-13T12:49:22;98224.31;;;10.02;55.68
57594;BME280;43423;46.510;6.686;2023-02-13T13:00:19;98222.06;;;10.30;55.06
57594;BME280;43423;46.510;6.686;2023-02-13T13:09:05;98210.81;;;10.82;54.98
57594;BME280;43423;46.510;6.686;2023-02-13T13:14:26;98210.44;;;10.80;53.83
57594;BME280;43423;46.510;6.686;2023-02-13T13:19:59;98200.56;;;10.83;53.08
57594;BME280;43423;46.510;6.686;2023-02-13T13:22:34;98200.34;;;10.48;54.45
57594;BME280;43423;46.510;6.686;2023-02-13T13:27:45;98195.03;;;10.70;53.93
57594;BME280;43423;46.510;6.686;2023-02-13T13:30:19;98191.13;;;10.55;53.51
57594;BME280;43423;46.510;6.686;2023-02-13T13:32:51;98194.06;;;10.89;53.09
57594;BME280;43423;46.510;6.686;2023-02-13T13:35:19;98194.09;;;11.02;52.07
57594;BME280;43423;46.510;6.686;2023-02-13T13:38:11;98186.59;;;11.03;52.02
57594;BME280;43423;46.510;6.686;2023-02-13T13:40:49;98183.03;;;10.77;52.61
57594;BME280;43423;46.510;6.686;2023-02-13T13:43:27;98185.69;;;11.06;52.52
57594;BME280;43423;46.510;6.686;2023-02-13T13:46:07;98181.41;;;11.05;51.49
57594;BME280;43423;46.510;6.686;2023-02-13T13:48:46;98179.88;;;11.04;50.37
57594;BME280;43423;46.510;6.686;2023-02-13T13:51:15;98187.81;;;11.02;51.61
57594;BME280;43423;46.510;6.686;2023-02-13T14:07:37;98161.72;;;11.32;49.53
57594;BME280;43423;46.510;6.686;2023-02-13T14:20:42;98165.34;;;11.41;50.35
57594;BME280;43423;46.510;6.686;2023-02-13T14:28:55;98162.44;;;11.58;48.65
57594;BME280;43423;46.510;6.686;2023-02-13T14:31:30;98163.44;;;11.51;48.14
57594;BME280;43423;46.510;6.686;2023-02-13T14:34:01;98162.34;;;11.49;48.06
57594;BME280;43423;46.510;6.686;2023-02-13T14:36:30;98161.13;;;11.50;49.09
57594;BME280;43423;46.510;6.686;2023-02-13T14:39:05;98156.56;;;11.68;48.43
57594;BME280;43423;46.510;6.686;2023-02-13T14:41:57;98150.34;;;11.55;48.50
57594;BME280;43423;46.510;6.686;2023-02-13T14:44:46;98149.28;;;11.14;49.26
57594;BME280;43423;46.510;6.686;2023-02-13T14:47:20;98140.56;;;10.78;50.27
57594;BME280;43423;46.510;6.686;2023-02-13T14:49:48;98133.53;;;11.02;49.19
57594;BME280;43423;46.510;6.686;2023-02-13T14:52:21;98139.13;;;10.73;49.98
57594;BME280;43423;46.510;6.686;2023-02-13T14:54:55;98134.47;;;10.57;51.00
57594;BME280;43423;46.510;6.686;2023-02-13T14:57:26;98128.56;;;10.59;51.06
57594;BME280;43423;46.510;6.686;2023-02-13T15:05:50;98138.16;;;10.09;51.99
57594;BME280;43423;46.510;6.686;2023-02-13T15:08:20;98132.22;;;9.82;52.35
57594;BME280;43423;46.510;6.686;2023-02-13T15:10:51;98126.88;;;9.91;51.97
57594;BME280;43423;46.510;6.686;2023-02-13T15:13:25;98120.94;;;9.92;52.37
57594;BME280;43423;46.510;6.686;2023-02-13T15:15:59;98124.97;;;9.59;53.64
57594;BME280;43423;46.510;6.686;2023-02-13T15:18:29;98125.81;;;9.56;53.77
57594;BME280;43423;46.510;6.686;2023-02-13T15:20:56;98117.84;;;9.61;53.59
57594;BME280;43423;46.510;6.686;2023-02-13T15:23:29;98118.34;;;9.72;53.61
57594;BME280;43423;46.510;6.686;2023-02-13T15:26:03;98112.88;;;9.56;54.37
57594;BME280;43423;46.510;6.686;2023-02-13T15:28:29;98113.47;;;9.47;54.14
57594;BME280;43423;46.510;6.686;2023-02-13T15:31:02;98108.53;;;9.26;54.40
57594;BME280;43423;46.510;6.686;2023-02-13T15:33:43;98102.75;;;9.37;54.44
57594;BME280;43423;46.510;6.686;2023-02-13T15:36:20;98107.75;;;9.26;55.40
57594;BME280;43423;46.510;6.686;2023-02-13T15:38:47;98105.78;;;9.26;55.71
57594;BME280;43423;46.510;6.686;2023-02-13T15:41:18;98109.63;;;9.29;55.44